Time;durP1;ratioP1;P1;durP2;ratioP2;P2;SDS_P1;SDS_P2;PMS_P1;PMS_P2;Temp;Humidity;BMP_temperature;BMP_pressure;BME280_temperature;BME280_humidity;BME280_pressure;Samples;Min_cycle;Max_cycle;Signal;HPM_P1;HPM_P2
2022/09/19 00:01:50;;;;;;;1.63;1.10;;;20.90;65.10;;;;;;5072243;28;20457;-74
2022/09/19 00:04:22;;;;;;;1.23;1.13;;;20.90;65.10;;;;;;5075692;28;20908;-74
2022/09/19 00:06:53;;;;;;;1.47;1.37;;;20.90;65.00;;;;;;5074616;28;20415;-74
2022/09/19 00:09:24;;;;;;;2.50;1.50;;;20.90;65.10;;;;;;5073939;28;20477;-75
2022/09/19 00:11:55;;;;;;;1.73;1.17;;;20.90;65.00;;;;;;5075228;28;20501;-73
2022/09/19 00:14:27;;;;;;;1.77;1.10;;;20.90;65.10;;;;;;5074764;28;20460;-74
2022/09/19 00:16:57;;;;;;;1.30;1.20;;;20.90;65.10;;;;;;5074688;28;20974;-74
2022/09/19 00:19:27;;;;;;;1.67;1.10;;;20.90;65.10;;;;;;5074776;28;20470;-75
2022/09/19 00:21:57;;;;;;;1.60;0.87;;;20.90;65.10;;;;;;5074928;28;20886;-74
2022/09/19 00:27:13;;;;;;;0.90;0.90;;;20.90;65.10;;;;;;5054703;28;20471;-74
2022/09/19 00:29:42;;;;;;;0.83;0.80;;;20.90;65.00;;;;;;5075116;28;20429;-74
2022/09/19 00:32:12;;;;;;;1.10;1.00;;;20.90;65.00;;;;;;5075221;28;20945;-74
2022/09/19 00:34:44;;;;;;;1.50;1.37;;;20.90;65.00;;;;;;5073124;28;20497;-74
2022/09/19 00:37:12;;;;;;;1.37;1.27;;;20.90;65.00;;;;;;5054633;28;20423;-73
2022/09/19 00:39:41;;;;;;;0.90;0.90;;;20.90;65.00;;;;;;5047344;28;20468;-74
2022/09/19 00:42:15;;;;;;;2.80;1.27;;;20.90;64.90;;;;;;5075024;28;20442;-71
2022/09/19 00:45:05;;;;;;;1.40;1.30;;;20.90;64.90;;;;;;5073491;28;20427;-73
2022/09/19 00:47:40;;;;;;;1.33;0.80;;;20.90;64.90;;;;;;5074303;28;20466;-73
2022/09/19 00:50:16;;;;;;;2.63;0.97;;;20.90;64.90;;;;;;5057149;28;20453;-74
2022/09/19 00:52:48;;;;;;;1.73;1.20;;;20.90;65.00;;;;;;5074123;28;20439;-73
2022/09/19 00:55:17;;;;;;;1.00;1.00;;;20.90;64.90;;;;;;5056655;28;20501;-72
2022/09/19 00:58:02;;;;;;;1.17;1.10;;;20.90;65.00;;;;;;5074749;28;20454;-74
2022/09/19 01:00:31;;;;;;;1.20;1.10;;;20.90;65.00;;;;;;5040086;28;20470;-74
2022/09/19 01:02:59;;;;;;;1.10;1.00;;;20.90;65.00;;;;;;5073592;28;20835;-73
2022/09/19 01:05:35;;;;;;;0.83;0.83;;;20.90;65.00;;;;;;5072614;28;20545;-73
2022/09/19 01:08:19;;;;;;;0.77;0.73;;;20.90;65.00;;;;;;5073423;28;20461;-73
2022/09/19 01:11:21;;;;;;;1.47;0.87;;;20.90;65.00;;;;;;5073923;28;20446;-74
2022/09/19 01:13:59;;;;;;;0.80;0.80;;;20.90;64.90;;;;;;5054018;28;20430;-74
2022/09/19 01:16:35;;;;;;;1.27;0.77;;;20.90;65.00;;;;;;5054761;28;20940;-72
2022/09/19 01:19:19;;;;;;;0.90;0.90;;;20.90;65.00;;;;;;5052598;28;20486;-74
2022/09/19 01:21:59;;;;;;;1.20;0.80;;;20.80;65.00;;;;;;5055516;28;20464;-73
2022/09/19 01:24:50;;;;;;;0.60;0.60;;;20.80;65.00;;;;;;5073444;28;20546;-73
2022/09/19 01:27:53;;;;;;;0.93;0.80;;;20.80;65.00;;;;;;5075006;28;20504;-72
2022/09/19 01:30:21;;;;;;;1.80;0.80;;;20.80;65.00;;;;;;5069782;28;20463;-74
2022/09/19 01:32:55;;;;;;;3.23;0.93;;;20.80;65.00;;;;;;5074022;28;20456;-74
2022/09/19 01:35:29;;;;;;;0.87;0.87;;;20.80;65.00;;;;;;5056141;28;20458;-74
2022/09/19 01:38:05;;;;;;;1.00;0.90;;;20.80;65.00;;;;;;5048543;28;20994;-73
2022/09/19 01:40:34;;;;;;;0.70;0.60;;;20.80;65.00;;;;;;5055880;28;20470;-74
2022/09/19 01:43:13;;;;;;;1.33;0.87;;;20.80;65.00;;;;;;5056395;28;20459;-73
2022/09/19 01:45:42;;;;;;;0.80;0.80;;;20.80;65.00;;;;;;5054999;28;20470;-73
2022/09/19 01:48:17;;;;;;;0.60;0.60;;;20.80;65.00;;;;;;5066360;28;20451;-74
2022/09/19 01:51:01;;;;;;;0.73;0.73;;;20.80;65.00;;;;;;5035648;28;20513;-75
2022/09/19 01:53:47;;;;;;;1.13;1.00;;;20.80;65.00;;;;;;5062338;28;20438;-74
2022/09/19 01:56:41;;;;;;;0.70;0.60;;;20.80;65.00;;;;;;5034311;28;20442;-73
2022/09/19 01:59:27;;;;;;;2.23;0.60;;;20.80;64.90;;;;;;5054749;28;20464;-74
2022/09/19 02:02:03;;;;;;;0.80;0.80;;;20.80;65.00;;;;;;5072486;28;20566;-74
2022/09/19 02:04:44;;;;;;;0.80;0.77;;;20.80;65.00;;;;;;5055279;28;20479;-74
2022/09/19 02:07:23;;;;;;;0.70;0.70;;;20.80;65.00;;;;;;5071453;28;20446;-74
2022/09/19 02:09:57;;;;;;;0.60;0.50;;;20.80;65.00;;;;;;5055782;28;20456;-74
2022/09/19 02:12:32;;;;;;;0.73;0.73;;;20.80;65.00;;;;;;5054960;28;20485;-73
2022/09/19 02:15:03;;;;;;;0.50;0.50;;;20.80;65.00;;;;;;5054641;28;20475;-74
2022/09/19 02:17:44;;;;;;;0.60;0.60;;;20.80;65.00;;;;;;5055085;28;20497;-74
2022/09/19 02:20:22;;;;;;;0.60;0.60;;;20.80;65.00;;;;;;5054613;28;20474;-74
2022/09/19 02:22:56;;;;;;;0.97;0.80;;;20.80;65.00;;;;;;5055210;28;20500;-75
2022/09/19 02:25:33;;;;;;;0.63;0.60;;;20.70;65.00;;;;;;5071218;28;20463;-72
2022/09/19 02:28:06;;;;;;;0.60;0.60;;;20.80;65.00;;;;;;5068035;28;20539;-74
2022/09/19 02:30:37;;;;;;;0.70;0.63;;;20.70;65.00;;;;;;5052269;28;20457;-74
2022/09/19 02:33:07;;;;;;;0.80;0.80;;;20.70;65.00;;;;;;5035381;28;20581;-74
2022/09/19 02:35:43;;;;;;;1.00;0.50;;;20.70;65.00;;;;;;5034549;28;20449;-73
2022/09/19 02:38:22;;;;;;;0.53;0.50;;;20.70;65.00;;;;;;5046264;28;20481;-73
2022/09/19 02:40:57;;;;;;;0.80;0.60;;;20.70;65.00;;;;;;5054945;28;21070;-74
2022/09/19 02:43:36;;;;;;;0.63;0.60;;;20.70;65.00;;;;;;5053253;28;20492;-73
2022/09/19 02:46:11;;;;;;;0.90;0.90;;;20.70;65.00;;;;;;5071798;28;20509;-72
2022/09/19 02:48:51;;;;;;;0.60;0.60;;;20.70;65.00;;;;;;5054346;28;20929;-74
2022/09/19 02:51:25;;;;;;;0.87;0.60;;;20.70;65.10;;;;;;5054107;28;20542;-74
2022/09/19 02:54:02;;;;;;;0.50;0.50;;;20.70;65.10;;;;;;5054158;28;20442;-74
2022/09/19 02:56:34;;;;;;;0.70;0.50;;;20.70;65.10;;;;;;5054776;28;20912;-73
2022/09/19 02:59:08;;;;;;;0.50;0.50;;;20.70;65.10;;;;;;5071252;28;20536;-74
2022/09/19 03:01:50;;;;;;;0.87;0.77;;;20.70;65.00;;;;;;5054404;28;21045;-71
2022/09/19 03:04:25;;;;;;;0.60;0.50;;;20.60;65.10;;;;;;5056110;28;20447;-74
2022/09/19 03:06:59;;;;;;;0.60;0.40;;;20.60;65.10;;;;;;5043185;28;20782;-74
2022/09/19 03:09:31;;;;;;;0.53;0.53;;;20.60;65.10;;;;;;5053785;28;20462;-74
2022/09/19 03:12:11;;;;;;;0.63;0.63;;;20.60;65.10;;;;;;5054134;28;20580;-72
2022/09/19 03:14:40;;;;;;;0.50;0.50;;;20.60;65.00;;;;;;5054317;28;20577;-74
2022/09/19 03:17:15;;;;;;;0.70;0.50;;;20.60;65.00;;;;;;5050838;28;20459;-74
2022/09/19 03:19:46;;;;;;;0.47;0.47;;;20.60;64.90;;;;;;5064311;28;20459;-74
2022/09/19 03:22:16;;;;;;;1.10;0.50;;;20.60;65.10;;;;;;5050438;28;20474;-73
2022/09/19 03:24:45;;;;;;;0.70;0.50;;;20.60;65.00;;;;;;5039510;28;20498;-73
2022/09/19 03:27:13;;;;;;;0.93;0.60;;;20.60;65.10;;;;;;5059332;28;20454;-74
2022/09/19 03:29:41;;;;;;;0.60;0.50;;;20.60;65.10;;;;;;5056722;28;20454;-75
2022/09/19 03:32:11;;;;;;;0.70;0.60;;;20.60;65.20;;;;;;5071777;28;20447;-74
2022/09/19 03:34:39;;;;;;;0.40;0.40;;;20.60;65.10;;;;;;5036847;28;20456;-74
2022/09/19 03:37:08;;;;;;;0.87;0.37;;;20.60;65.10;;;;;;5045967;28;20519;-74
2022/09/19 03:39:36;;;;;;;0.50;0.50;;;20.60;65.10;;;;;;5057398;28;20976;-74
2022/09/19 03:42:06;;;;;;;0.50;0.50;;;20.60;65.10;;;;;;5043537;28;20471;-74
2022/09/19 03:44:35;;;;;;;0.40;0.40;;;20.60;65.20;;;;;;5037796;28;20451;-73
2022/09/19 03:47:04;;;;;;;1.57;0.60;;;20.60;65.10;;;;;;5071649;28;20453;-75
2022/09/19 03:49:34;;;;;;;0.50;0.50;;;20.60;65.20;;;;;;5052308;28;20484;-75
2022/09/19 03:52:03;;;;;;;0.60;0.53;;;20.60;65.20;;;;;;5074049;28;20460;-74
2022/09/19 03:54:31;;;;;;;1.03;0.57;;;20.60;65.20;;;;;;5066414;28;21523;-74
2022/09/19 03:56:59;;;;;;;0.43;0.43;;;20.60;65.20;;;;;;5072625;28;20458;-74
2022/09/19 03:59:28;;;;;;;0.40;0.40;;;20.60;65.20;;;;;;5074531;28;21181;-74
2022/09/19 04:01:58;;;;;;;0.87;0.50;;;20.60;65.10;;;;;;5042566;28;20467;-74
2022/09/19 04:04:26;;;;;;;0.73;0.50;;;20.50;65.20;;;;;;5038207;28;20482;-74
2022/09/19 04:06:58;;;;;;;0.60;0.50;;;20.50;65.10;;;;;;5053728;28;20498;-75
2022/09/19 04:09:27;;;;;;;0.40;0.40;;;20.50;65.20;;;;;;5051503;28;20451;-74
2022/09/19 04:12:00;;;;;;;0.50;0.50;;;20.50;65.20;;;;;;5057583;28;20497;-75
2022/09/19 04:14:35;;;;;;;0.53;0.40;;;20.50;65.20;;;;;;5049154;28;20480;-74
2022/09/19 04:17:06;;;;;;;0.63;0.63;;;20.50;65.20;;;;;;5068864;28;20456;-74
2022/09/19 04:19:52;;;;;;;0.60;0.50;;;20.50;65.20;;;;;;5054699;28;20536;-74
2022/09/19 04:22:42;;;;;;;0.60;0.50;;;20.50;65.20;;;;;;5071881;28;21030;-74
2022/09/19 04:25:28;;;;;;;0.40;0.40;;;20.50;65.20;;;;;;5055928;28;20470;-75
2022/09/19 04:28:04;;;;;;;0.40;0.40;;;20.50;65.30;;;;;;5052471;28;20801;-75
2022/09/19 04:30:36;;;;;;;0.70;0.60;;;20.50;65.30;;;;;;5052943;28;20506;-73
2022/09/19 04:33:06;;;;;;;0.60;0.50;;;20.50;65.40;;;;;;5056404;28;20499;-76
2022/09/19 04:35:36;;;;;;;1.23;0.60;;;20.50;65.60;;;;;;5050303;28;20467;-74
2022/09/19 04:38:11;;;;;;;1.33;0.50;;;20.50;65.90;;;;;;5050190;28;20473;-76
2022/09/19 04:40:39;;;;;;;0.50;0.50;;;20.50;66.00;;;;;;5043314;28;20585;-75
2022/09/19 04:43:09;;;;;;;0.63;0.63;;;20.50;66.10;;;;;;5074795;28;20476;-77
2022/09/19 04:45:40;;;;;;;4.93;0.90;;;20.50;66.10;;;;;;5042276;28;21048;-72
2022/09/19 04:48:19;;;;;;;0.80;0.50;;;20.50;66.20;;;;;;5058872;28;20466;-77
2022/09/19 04:50:50;;;;;;;0.73;0.70;;;20.50;66.20;;;;;;5049683;28;20497;-77
2022/09/19 04:53:23;;;;;;;0.60;0.60;;;20.50;66.20;;;;;;5053072;28;20968;-76
2022/09/19 04:55:55;;;;;;;0.70;0.70;;;20.50;66.20;;;;;;5051178;28;20458;-76
2022/09/19 04:58:23;;;;;;;0.80;0.53;;;20.60;66.20;;;;;;5068739;28;20945;-75
2022/09/19 05:00:54;;;;;;;2.23;0.90;;;20.60;66.20;;;;;;5052083;28;20467;-79
2022/09/19 05:03:26;;;;;;;1.90;0.93;;;20.50;66.20;;;;;;5057846;28;20885;-77
2022/09/19 05:05:58;;;;;;;0.77;0.77;;;20.60;66.30;;;;;;5053526;28;20482;-77
2022/09/19 05:08:32;;;;;;;0.73;0.60;;;20.50;66.40;;;;;;5051399;28;20470;-77
2022/09/19 05:11:08;;;;;;;1.80;0.80;;;20.60;66.40;;;;;;5050924;28;20487;-77
2022/09/19 05:13:38;;;;;;;0.60;0.60;;;20.50;66.40;;;;;;5050063;28;20452;-77
2022/09/19 05:16:13;;;;;;;6.13;0.90;;;20.60;66.40;;;;;;5053741;28;20831;-77
2022/09/19 05:18:49;;;;;;;1.33;0.83;;;20.60;66.40;;;;;;5052056;28;20459;-75
2022/09/19 05:21:18;;;;;;;1.03;0.63;;;20.60;66.40;;;;;;5049872;28;20459;-75
2022/09/19 05:23:48;;;;;;;0.77;0.73;;;20.60;66.50;;;;;;5050805;28;21019;-77
2022/09/19 05:26:17;;;;;;;1.63;0.97;;;20.60;66.50;;;;;;5051799;28;20463;-77
2022/09/19 05:28:50;;;;;;;0.67;0.63;;;20.60;66.50;;;;;;5051805;28;20458;-77
2022/09/19 05:31:20;;;;;;;1.27;0.97;;;20.60;66.50;;;;;;5052332;28;20466;-77
2022/09/19 05:34:11;;;;;;;3.10;0.80;;;20.60;66.50;;;;;;5065851;28;20519;-75
2022/09/19 05:36:39;;;;;;;2.00;0.70;;;20.60;66.40;;;;;;5050965;28;20470;-76
2022/09/19 05:39:21;;;;;;;2.50;0.83;;;20.60;66.40;;;;;;5069972;28;20534;-76
2022/09/19 05:42:01;;;;;;;6.23;1.87;;;20.60;66.40;;;;;;5053733;28;20802;-76
2022/09/19 05:44:33;;;;;;;1.97;0.90;;;20.60;66.30;;;;;;5049555;28;20447;-75
2022/09/19 05:47:03;;;;;;;2.47;1.77;;;20.60;66.30;;;;;;5048072;28;20505;-77
2022/09/19 05:49:32;;;;;;;4.23;1.40;;;20.60;66.50;;;;;;5070689;28;20499;-77
2022/09/19 05:53:51;;;;;;;1.63;1.40;;;20.60;66.50;;;;;;5053030;28;20958;-77
2022/09/19 05:54:52;;;;;;;2.70;1.10;;;20.50;66.50;;;;;;5054654;28;20553;-76
2022/09/19 05:57:32;;;;;;;3.93;1.03;;;20.50;66.50;;;;;;5054232;28;20751;-77
2022/09/19 06:00:00;;;;;;;1.13;0.83;;;20.60;66.40;;;;;;5067886;28;20470;-73
2022/09/19 06:02:28;;;;;;;2.27;0.90;;;20.60;66.50;;;;;;5052747;28;20474;-76
2022/09/19 06:05:00;;;;;;;2.50;1.23;;;20.60;66.40;;;;;;5052280;28;20463;-73
2022/09/19 06:07:31;;;;;;;4.63;1.67;;;20.50;66.40;;;;;;5044390;28;20807;-76
2022/09/19 06:10:01;;;;;;;0.80;0.70;;;20.60;66.40;;;;;;5050157;28;20459;-70
2022/09/19 06:12:29;;;;;;;3.23;1.23;;;20.50;66.40;;;;;;5031283;28;20520;-81
2022/09/19 06:15:00;;;;;;;3.27;1.00;;;20.60;66.70;;;;;;5025552;28;20979;-82
2022/09/19 06:17:28;;;;;;;2.80;1.33;;;20.60;66.80;;;;;;5024681;28;20542;-75
2022/09/19 06:20:07;;;;;;;4.40;0.90;;;20.60;66.90;;;;;;5030353;28;20515;-77
2022/09/19 06:22:47;;;;;;;1.87;0.87;;;20.60;66.70;;;;;;5032130;28;20528;-76
2022/09/19 06:25:20;;;;;;;0.80;0.80;;;20.60;66.50;;;;;;5029658;28;20802;-78
2022/09/19 06:27:53;;;;;;;4.73;1.00;;;20.60;66.70;;;;;;5027956;28;20460;-74
2022/09/19 06:30:22;;;;;;;1.10;0.90;;;20.70;66.80;;;;;;5030408;28;20450;-78
2022/09/19 06:33:02;;;;;;;1.20;0.87;;;20.70;66.80;;;;;;5030966;28;20959;-77
2022/09/19 06:35:42;;;;;;;1.33;0.70;;;20.70;66.80;;;;;;5029830;28;21496;-77
2022/09/19 06:38:11;;;;;;;1.07;1.00;;;20.70;66.80;;;;;;5027156;28;20547;-75
2022/09/19 06:40:43;;;;;;;1.87;0.70;;;20.70;66.80;;;;;;5031285;28;20530;-78
2022/09/19 06:43:26;;;;;;;1.17;0.90;;;20.70;66.60;;;;;;5030813;28;20492;-75
2022/09/19 06:46:27;;;;;;;2.07;1.00;;;20.80;66.60;;;;;;5015041;28;20458;-76
2022/09/19 06:49:30;;;;;;;1.37;1.13;;;20.80;66.50;;;;;;5018095;28;20460;-74
2022/09/19 06:52:24;;;;;;;2.70;0.87;;;20.80;66.70;;;;;;5024472;28;20475;-76
2022/09/19 06:54:53;;;;;;;3.47;1.30;;;20.80;66.90;;;;;;5023138;28;20944;-77
2022/09/19 06:57:24;;;;;;;2.20;1.00;;;20.80;66.80;;;;;;5028733;28;20462;-78
2022/09/19 06:59:52;;;;;;;2.30;0.60;;;20.80;66.70;;;;;;5028565;28;20467;-77
2022/09/19 07:02:21;;;;;;;0.97;0.67;;;20.80;66.80;;;;;;5026660;28;20507;-76
2022/09/19 07:04:51;;;;;;;1.67;0.90;;;20.80;66.70;;;;;;5030066;28;20460;-78
2022/09/19 07:07:52;;;;;;;1.80;1.00;;;20.80;66.80;;;;;;5021895;28;20843;-76
2022/09/19 07:10:20;;;;;;;6.37;0.70;;;20.80;66.80;;;;;;5028417;28;20480;-75
2022/09/19 07:12:55;;;;;;;0.77;0.77;;;20.80;66.70;;;;;;5029808;28;20482;-77
2022/09/19 07:15:24;;;;;;;1.73;0.70;;;20.90;66.70;;;;;;5020365;28;20511;-74
2022/09/19 07:17:54;;;;;;;1.00;0.63;;;20.90;66.60;;;;;;5027123;28;21006;-74
2022/09/19 07:20:23;;;;;;;1.63;0.70;;;20.90;66.60;;;;;;5029346;28;20526;-75
2022/09/19 07:23:01;;;;;;;1.93;0.87;;;20.90;66.60;;;;;;5031490;28;20496;-75
2022/09/19 07:25:55;;;;;;;1.90;0.70;;;20.90;66.50;;;;;;5022394;28;20458;-77
2022/09/19 07:28:26;;;;;;;1.27;1.10;;;20.90;66.40;;;;;;5024571;28;20850;-75
2022/09/19 07:30:58;;;;;;;0.80;0.80;;;20.90;66.50;;;;;;5029047;28;20516;-75
2022/09/19 07:33:30;;;;;;;2.00;0.70;;;20.90;66.30;;;;;;5030168;28;20492;-74
2022/09/19 07:35:59;;;;;;;3.63;1.20;;;20.90;66.40;;;;;;5030537;28;20457;-76
2022/09/19 07:38:33;;;;;;;2.13;0.97;;;21.00;66.00;;;;;;5038278;28;20446;-76
2022/09/19 07:41:20;;;;;;;0.70;0.70;;;21.00;66.10;;;;;;5026244;28;20444;-75
2022/09/19 07:44:04;;;;;;;3.00;0.77;;;21.00;65.90;;;;;;5027796;28;20467;-75
2022/09/19 07:49:49;;;;;;;1.27;0.80;;;21.00;66.00;;;;;;5030303;28;20445;-83
2022/09/19 07:52:33;;;;;;;0.70;0.70;;;21.00;66.20;;;;;;5032635;28;20454;-84
2022/09/19 07:55:01;;;;;;;1.00;0.90;;;21.00;65.80;;;;;;5027260;28;20477;-71
2022/09/19 07:57:30;;;;;;;1.37;0.70;;;21.00;65.80;;;;;;5021196;28;20454;-76
2022/09/19 08:00:00;;;;;;;1.47;0.90;;;21.00;66.10;;;;;;5028118;28;20866;-76
2022/09/19 08:02:32;;;;;;;1.37;0.73;;;21.00;66.10;;;;;;5026350;28;20793;-75
2022/09/19 08:05:00;;;;;;;0.70;0.70;;;21.00;66.00;;;;;;5028952;28;20530;-76
2022/09/19 08:07:28;;;;;;;1.57;0.80;;;21.10;66.10;;;;;;5030807;28;20507;-73
2022/09/19 08:09:57;;;;;;;1.33;0.80;;;21.10;66.20;;;;;;5025602;28;20464;-71
2022/09/19 08:12:30;;;;;;;1.80;0.77;;;21.10;66.30;;;;;;5029748;28;20479;-73
2022/09/19 08:15:15;;;;;;;1.00;0.90;;;21.10;66.20;;;;;;5028386;28;20540;-74
2022/09/19 08:17:44;;;;;;;1.57;0.83;;;21.10;66.30;;;;;;5033160;28;20456;-74
2022/09/19 08:20:13;;;;;;;3.40;1.00;;;21.10;66.40;;;;;;5032962;28;20465;-72
2022/09/19 08:22:44;;;;;;;1.03;0.77;;;21.10;66.30;;;;;;5030570;28;20453;-75
2022/09/19 08:25:12;;;;;;;1.70;0.80;;;21.10;66.00;;;;;;5034836;28;20800;-75
2022/09/19 08:27:44;;;;;;;2.57;0.90;;;21.10;66.20;;;;;;5033352;28;20769;-76
2022/09/19 08:30:14;;;;;;;1.80;1.00;;;21.20;66.20;;;;;;5032433;28;20786;-74
2022/09/19 08:32:45;;;;;;;1.43;0.80;;;21.20;66.30;;;;;;5030497;28;20979;-76
2022/09/19 08:35:16;;;;;;;0.97;0.80;;;21.20;66.00;;;;;;5028796;28;20913;-75
2022/09/19 08:37:44;;;;;;;1.20;1.10;;;21.20;66.10;;;;;;5018289;28;20453;-75
2022/09/19 08:40:18;;;;;;;3.27;0.90;;;21.20;66.20;;;;;;5029314;28;20446;-76
2022/09/19 08:43:02;;;;;;;0.80;0.70;;;21.20;66.10;;;;;;5033191;28;20448;-74
2022/09/19 08:45:47;;;;;;;2.20;1.00;;;21.20;66.10;;;;;;5030765;28;20469;-76
2022/09/19 08:48:21;;;;;;;0.50;0.50;;;21.20;66.10;;;;;;5031641;28;20467;-78
2022/09/19 08:50:56;;;;;;;1.70;0.60;;;21.30;66.10;;;;;;5017344;28;20449;-76
2022/09/19 08:53:29;;;;;;;0.63;0.63;;;21.30;66.00;;;;;;5025396;28;21035;-75
2022/09/19 08:56:00;;;;;;;2.00;1.10;;;21.30;65.90;;;;;;5033259;28;20454;-74
2022/09/19 08:58:34;;;;;;;1.60;1.00;;;21.30;66.00;;;;;;5031787;28;20796;-75
2022/09/19 09:01:34;;;;;;;1.33;0.87;;;21.30;65.80;;;;;;5031426;28;20458;-76
2022/09/19 09:04:30;;;;;;;0.63;0.63;;;21.30;66.00;;;;;;5028171;28;20482;-75
2022/09/19 09:07:19;;;;;;;2.27;0.80;;;21.30;65.90;;;;;;5033483;28;20464;-76
2022/09/19 09:10:24;;;;;;;0.90;0.63;;;21.40;65.90;;;;;;5028757;28;20778;-75
2022/09/19 09:13:07;;;;;;;0.80;0.70;;;21.40;65.90;;;;;;5063127;28;20480;-74
2022/09/19 09:15:48;;;;;;;1.10;0.77;;;21.40;65.80;;;;;;5050556;28;20483;-74
2022/09/19 09:18:38;;;;;;;1.00;0.80;;;21.40;65.80;;;;;;5052579;28;20769;-73
2022/09/19 09:21:13;;;;;;;6.10;1.20;;;21.50;65.80;;;;;;5067349;28;21075;-73
2022/09/19 09:23:46;;;;;;;1.93;0.90;;;21.50;65.70;;;;;;5056288;28;20445;-76
2022/09/19 09:26:43;;;;;;;0.80;0.70;;;21.50;65.70;;;;;;5054393;28;20794;-77
2022/09/19 09:29:22;;;;;;;5.30;0.90;;;21.50;65.60;;;;;;5047560;28;20970;-75
2022/09/19 09:32:14;;;;;;;0.97;0.90;;;21.60;65.50;;;;;;5051578;28;20446;-84
2022/09/19 09:35:01;;;;;;;2.17;1.17;;;21.60;65.30;;;;;;5054159;28;20537;-73
2022/09/19 09:37:35;;;;;;;2.60;0.70;;;21.60;65.20;;;;;;5070685;28;20468;-72
2022/09/19 09:41:44;;;;;;;1.33;0.90;;;21.70;65.30;;;;;;5063120;28;20471;-74
2022/09/19 09:43:06;;;;;;;0.70;0.63;;;21.70;65.20;;;;;;5048391;28;20844;-77
2022/09/19 09:45:44;;;;;;;2.20;1.00;;;21.70;65.10;;;;;;5052739;28;20970;-76
2022/09/19 09:48:24;;;;;;;2.33;1.00;;;21.80;65.10;;;;;;5056169;28;20468;-74
2022/09/19 09:51:07;;;;;;;1.17;0.70;;;21.80;65.00;;;;;;5059879;28;20830;-74
2022/09/19 09:53:53;;;;;;;0.93;0.70;;;21.80;65.10;;;;;;5052575;28;20511;-73
2022/09/19 09:56:28;;;;;;;1.53;1.33;;;21.90;65.00;;;;;;5049895;28;20537;-73
2022/09/19 10:05:08;;;;;;;1.23;0.90;;;22.00;64.80;;;;;;5068612;28;20485;-73
2022/09/19 10:07:45;;;;;;;1.27;0.90;;;22.10;64.90;;;;;;5044547;28;20457;-73
2022/09/19 10:10:21;;;;;;;1.37;0.83;;;22.10;64.80;;;;;;5051847;28;21029;-72
2022/09/19 10:12:58;;;;;;;1.40;1.20;;;22.10;64.80;;;;;;5054247;28;20488;-75
2022/09/19 10:15:32;;;;;;;1.03;0.90;;;22.10;64.60;;;;;;5053296;28;20508;-73
2022/09/19 10:18:16;;;;;;;1.00;1.00;;;22.20;64.80;;;;;;5053383;28;20445;-76
2022/09/19 10:20:54;;;;;;;1.60;1.30;;;22.20;64.60;;;;;;5063945;28;20496;-76
2022/09/19 10:23:32;;;;;;;1.03;0.83;;;22.20;64.50;;;;;;5047130;28;20458;-74
2022/09/19 10:26:16;;;;;;;0.70;0.60;;;22.20;64.60;;;;;;5044899;28;20470;-73
2022/09/19 10:28:53;;;;;;;3.50;1.20;;;22.30;64.20;;;;;;5073792;28;20467;-73
2022/09/19 10:31:41;;;;;;;5.47;1.13;;;22.30;64.10;;;;;;5072098;28;20461;-77
2022/09/19 10:34:34;;;;;;;5.87;0.90;;;22.40;63.90;;;;;;5019514;28;20458;-78
2022/09/19 10:37:22;;;;;;;2.10;1.00;;;22.50;63.90;;;;;;5051716;28;20553;-75
2022/09/19 10:40:00;;;;;;;3.93;0.83;;;22.60;63.90;;;;;;5049159;28;20785;-75
2022/09/19 10:42:37;;;;;;;4.20;1.10;;;22.70;64.10;;;;;;5048609;28;21145;-74
2022/09/19 10:45:25;;;;;;;1.30;1.20;;;22.80;63.50;;;;;;5044672;28;20487;-74
2022/09/19 10:48:00;;;;;;;1.00;0.90;;;23.00;63.50;;;;;;5052664;28;20462;-74
2022/09/19 10:50:30;;;;;;;7.23;1.10;;;23.20;62.40;;;;;;5050573;28;20806;-74
2022/09/19 10:53:07;;;;;;;2.13;1.17;;;23.50;61.90;;;;;;5069770;28;20471;-73
2022/09/19 10:55:43;;;;;;;0.77;0.70;;;23.80;61.30;;;;;;5040519;28;20476;-74
2022/09/19 10:58:17;;;;;;;1.47;1.00;;;24.10;60.70;;;;;;5050106;28;20952;-74
2022/09/19 11:00:52;;;;;;;1.90;1.30;;;24.30;60.20;;;;;;5052018;28;20474;-77
2022/09/19 11:03:25;;;;;;;1.00;0.60;;;24.40;59.80;;;;;;5068089;28;20544;-74
2022/09/19 11:06:06;;;;;;;2.40;1.00;;;24.40;59.90;;;;;;5067004;28;20474;-74
2022/09/19 11:08:45;;;;;;;4.90;1.30;;;24.60;59.70;;;;;;5040410;28;20455;-75
2022/09/19 11:11:45;;;;;;;3.83;1.43;;;24.80;59.30;;;;;;5066078;28;20495;-75
2022/09/19 11:14:22;;;;;;;1.17;1.07;;;25.00;58.70;;;;;;5059421;28;20451;-79
2022/09/19 11:17:30;;;;;;;5.27;0.90;;;25.20;58.20;;;;;;5054691;28;20906;-76
2022/09/19 11:20:16;;;;;;;6.97;1.17;;;25.30;58.10;;;;;;4985057;28;20544;-76
2022/09/19 11:23:16;;;;;;;1.20;0.80;;;25.10;58.30;;;;;;5065444;28;20452;-76
2022/09/19 11:25:53;;;;;;;2.30;0.80;;;24.90;58.90;;;;;;5049600;28;20464;-75
2022/09/19 11:28:33;;;;;;;1.03;0.80;;;24.80;59.00;;;;;;5067211;28;20927;-76
2022/09/19 11:31:11;;;;;;;1.53;1.10;;;25.00;58.60;;;;;;5065387;28;20470;-76
2022/09/19 11:33:53;;;;;;;0.83;0.77;;;25.30;58.10;;;;;;5050829;28;20491;-76
2022/09/19 11:37:04;;;;;;;1.10;1.00;;;25.50;57.60;;;;;;5058557;28;20450;-75
2022/09/19 11:39:48;;;;;;;0.80;0.80;;;25.40;57.60;;;;;;5053516;28;20543;-75
2022/09/19 11:42:34;;;;;;;2.20;1.77;;;25.30;57.80;;;;;;5046472;28;20534;-76
2022/09/19 11:45:12;;;;;;;1.13;0.70;;;25.10;58.10;;;;;;5050738;28;20490;-75
2022/09/19 11:48:09;;;;;;;1.10;1.10;;;24.80;58.60;;;;;;5052977;28;20804;-76
2022/09/19 11:50:59;;;;;;;7.13;1.10;;;24.60;59.20;;;;;;5050961;28;20569;-76
2022/09/19 11:53:50;;;;;;;4.73;1.60;;;24.40;59.70;;;;;;5050731;28;20465;-76
2022/09/19 11:56:40;;;;;;;1.50;1.40;;;24.40;60.00;;;;;;5051034;28;20459;-76
2022/09/19 11:59:29;;;;;;;1.50;0.90;;;24.60;59.60;;;;;;5049258;28;20830;-75
2022/09/19 12:02:20;;;;;;;2.87;1.13;;;24.80;59.50;;;;;;5066605;28;20525;-75
2022/09/19 12:05:03;;;;;;;1.20;1.10;;;24.90;59.30;;;;;;5053082;28;21393;-76
2022/09/19 12:07:47;;;;;;;1.57;1.13;;;25.00;59.10;;;;;;5048037;28;20468;-75
2022/09/19 12:10:20;;;;;;;2.23;1.20;;;25.20;58.70;;;;;;5068265;28;20454;-76
2022/09/19 12:12:56;;;;;;;1.10;1.10;;;25.20;58.60;;;;;;5050936;28;20494;-75
2022/09/19 12:15:40;;;;;;;1.00;0.83;;;25.20;58.50;;;;;;5041270;28;20534;-76
2022/09/19 12:18:16;;;;;;;3.83;1.37;;;25.00;59.00;;;;;;5044186;28;20463;-75
2022/09/19 12:20:48;;;;;;;3.97;1.20;;;24.70;59.60;;;;;;5058858;28;20868;-75
2022/09/19 12:26:22;;;;;;;2.00;1.17;;;24.30;60.40;;;;;;5072741;28;20486;-76
2022/09/19 12:28:55;;;;;;;1.83;1.57;;;24.30;60.50;;;;;;5053441;28;20951;-76
2022/09/19 12:31:28;;;;;;;1.80;1.10;;;24.40;60.60;;;;;;5050089;28;20539;-76
2022/09/19 12:34:07;;;;;;;2.63;1.40;;;24.40;60.40;;;;;;5056371;28;20454;-76
2022/09/19 12:36:44;;;;;;;1.23;1.13;;;24.60;60.20;;;;;;5050644;28;20462;-76
2022/09/19 12:39:16;;;;;;;1.23;1.13;;;24.50;60.30;;;;;;5053046;28;20456;-73
2022/09/19 12:41:55;;;;;;;1.47;1.00;;;24.30;60.60;;;;;;5070409;28;20541;-74
2022/09/19 12:44:34;;;;;;;1.73;1.10;;;24.20;60.80;;;;;;5047239;28;20514;-74
2022/09/19 12:47:16;;;;;;;1.07;1.00;;;24.20;61.00;;;;;;5051249;28;20468;-74
2022/09/19 12:50:15;;;;;;;2.40;1.10;;;24.20;61.00;;;;;;5041401;28;20460;-72
2022/09/19 12:52:56;;;;;;;2.17;1.20;;;24.30;60.90;;;;;;5066544;28;20486;-75
2022/09/19 12:55:30;;;;;;;2.50;1.33;;;24.50;60.60;;;;;;5072200;28;20449;-73
2022/09/19 12:58:03;;;;;;;4.23;1.10;;;24.70;60.40;;;;;;5067697;28;20444;-75
2022/09/19 13:00:39;;;;;;;1.20;1.07;;;24.80;60.20;;;;;;5072563;28;20465;-76
2022/09/19 13:03:14;;;;;;;1.53;1.17;;;24.80;60.20;;;;;;5071811;28;20452;-77
2022/09/19 13:05:47;;;;;;;4.00;1.33;;;24.70;60.40;;;;;;5070970;28;20538;-73
2022/09/19 13:08:22;;;;;;;1.13;1.03;;;24.60;60.60;;;;;;5068504;28;20924;-76
2022/09/19 13:10:58;;;;;;;3.80;1.13;;;24.50;60.90;;;;;;5068128;28;20470;-77
2022/09/19 13:13:31;;;;;;;1.10;1.00;;;24.50;61.00;;;;;;5070822;28;20431;-77
2022/09/19 13:16:02;;;;;;;2.57;0.83;;;24.60;60.90;;;;;;5072535;28;20819;-72
2022/09/19 13:24:12;;;;;;;1.50;1.10;;;25.00;60.20;;;;;;5035915;28;20562;-78
2022/09/19 13:26:40;;;;;;;2.10;1.10;;;25.10;60.00;;;;;;5069653;28;20503;-82
2022/09/19 13:29:46;;;;;;;2.07;1.00;;;25.20;59.80;;;;;;5070687;28;20475;-80
2022/09/19 13:32:52;;;;;;;1.07;1.03;;;25.30;59.60;;;;;;5069492;28;20926;-80
2022/09/19 13:35:22;;;;;;;1.20;0.80;;;25.30;59.70;;;;;;5068716;28;20555;-82
2022/09/19 13:37:59;;;;;;;1.17;0.93;;;25.20;59.90;;;;;;5065000;28;20754;-82
2022/09/19 13:40:48;;;;;;;1.63;1.13;;;25.10;60.00;;;;;;5070908;28;20548;-84
2022/09/19 13:43:27;;;;;;;0.60;0.60;;;24.90;60.20;;;;;;5062997;28;20533;-81
2022/09/19 13:46:02;;;;;;;1.57;1.00;;;24.70;60.50;;;;;;5061226;28;20453;-83
2022/09/19 13:48:47;;;;;;;0.80;0.80;;;24.60;60.80;;;;;;5071311;28;20458;-80
2022/09/19 13:51:24;;;;;;;2.00;0.83;;;24.50;61.00;;;;;;5070607;28;20470;-81
2022/09/19 13:54:42;;;;;;;3.30;0.87;;;24.40;61.50;;;;;;5071502;28;20478;-82
2022/09/19 13:57:14;;;;;;;0.93;0.80;;;24.40;61.50;;;;;;5069815;28;20915;-81
2022/09/19 13:59:50;;;;;;;1.47;1.00;;;24.30;61.70;;;;;;5070849;28;20463;-74